LAY weather

Ladysmith Airport
Ladysmith, Kwazulu-Natal, South Africa

Public forecast

Using degrees Celsius for public forecast. Weather courtesy of forecast.io.

Closest aviation weather report (METAR) to Ladysmith Airport

Report is more than 6 hours old.

Closest report is Pietermaritzburg Airport, 72.6 nm (134.4 km) SSE. Retrieved 2019/01/15 06:00 UTC (1 year ago):

FAPM 150600Z 21005KT 1000 DZ OVC007 21/21 Q1015

Closest aviation forecast (TAF) to Ladysmith Airport

Forecast is more than 12 hours old.

Closest forecast is Pietermaritzburg Airport, 72.6 nm (134.4 km) SSE. Retrieved 2014/08/25 07:00 UTC (6 years ago):

TAF FAPM 250600Z 2507/2518 14005KT CAVOK BECMG 2509/2511 08005KT TX20/2511ZTN10/2518Z